Time;durP1;ratioP1;P1;durP2;ratioP2;P2;SDS_P1;SDS_P2;PMS_P1;PMS_P2;Temp;Humidity;BMP_temperature;BMP_pressure;BME280_temperature;BME280_humidity;BME280_pressure;Samples;Min_cycle;Max_cycle;Signal;HPM_P1;HPM_P2
2021/09/01 00:01:24;;;;;;;23.50;10.53;;;;;;;;;;5112174;28;20326;-71
2021/09/01 00:03:49;;;;;;;26.57;10.07;;;;;;;;;;5111093;28;20646;-70
2021/09/01 00:06:14;;;;;;;27.77;11.27;;;;;;;;;;5106076;28;20285;-71
2021/09/01 00:08:40;;;;;;;23.23;10.02;;;;;;;;;;5093297;28;20341;-71
2021/09/01 00:11:05;;;;;;;26.87;10.87;;;;;;;;;;5112092;28;20103;-71
2021/09/01 00:13:30;;;;;;;30.03;10.20;;;;;;;;;;5111353;28;20250;-71
2021/09/01 00:15:55;;;;;;;29.00;11.07;;;;;;;;;;5112003;28;20258;-71
2021/09/01 00:18:20;;;;;;;27.87;10.67;;;;;;;;;;5112133;28;20745;-71
2021/09/01 00:20:46;;;;;;;29.65;11.63;;;;;;;;;;5106106;22;20305;-71
2021/09/01 00:23:14;;;;;;;33.10;10.83;;;;;;;;;;5090207;28;20091;-71
2021/09/01 00:25:40;;;;;;;36.20;11.02;;;;;;;;;;5072331;28;20336;-71
2021/09/01 00:28:05;;;;;;;27.00;11.23;;;;;;;;;;5090393;28;20107;-71
2021/09/01 00:30:30;;;;;;;28.90;11.38;;;;;;;;;;5090500;28;20027;-71
2021/09/01 00:32:55;;;;;;;35.40;11.03;;;;;;;;;;5090094;28;20028;-71
2021/09/01 00:35:21;;;;;;;25.15;11.43;;;;;;;;;;5090125;28;20288;-71
2021/09/01 00:37:46;;;;;;;29.23;11.40;;;;;;;;;;5090225;28;20035;-71
2021/09/01 00:40:11;;;;;;;30.53;11.67;;;;;;;;;;5088945;28;20020;-72
2021/09/01 00:42:36;;;;;;;34.03;11.65;;;;;;;;;;5082233;28;20800;-71
2021/09/01 00:45:02;;;;;;;24.50;12.25;;;;;;;;;;5070193;28;20107;-71
2021/09/01 00:47:27;;;;;;;37.97;13.20;;;;;;;;;;5070075;28;20078;-71
2021/09/01 00:49:52;;;;;;;30.15;12.88;;;;;;;;;;5070282;28;20060;-71
2021/09/01 00:52:18;;;;;;;37.28;13.93;;;;;;;;;;5069814;28;20108;-70
2021/09/01 00:54:43;;;;;;;30.80;13.15;;;;;;;;;;5070200;28;20063;-70
2021/09/01 00:57:10;;;;;;;36.67;12.18;;;;;;;;;;5070386;28;20020;-71
2021/09/01 00:59:37;;;;;;;29.10;12.43;;;;;;;;;;5070000;28;20078;-70
2021/09/01 01:02:03;;;;;;;31.90;12.43;;;;;;;;;;5069968;28;20100;-70
2021/09/01 01:04:28;;;;;;;37.28;14.18;;;;;;;;;;5084514;28;20103;-70
2021/09/01 01:06:54;;;;;;;30.23;12.43;;;;;;;;;;5071072;28;20371;-70
2021/09/01 01:09:19;;;;;;;32.03;13.88;;;;;;;;;;5069791;28;20043;-70
2021/09/01 01:12:03;;;;;;;31.63;13.23;;;;;;;;;;5069780;28;20130;-71
2021/09/01 01:14:28;;;;;;;33.25;12.90;;;;;;;;;;5069837;28;20272;-70
2021/09/01 01:16:54;;;;;;;37.90;12.77;;;;;;;;;;5072264;28;20028;-71
2021/09/01 01:19:20;;;;;;;36.88;14.40;;;;;;;;;;5087986;28;20028;-70
2021/09/01 01:21:45;;;;;;;30.92;13.30;;;;;;;;;;5089482;28;20111;-71
2021/09/01 01:24:10;;;;;;;37.90;13.00;;;;;;;;;;5089788;28;20028;-71
2021/09/01 01:26:35;;;;;;;36.50;14.68;;;;;;;;;;5091704;28;20017;-71
2021/09/01 01:29:02;;;;;;;35.23;11.97;;;;;;;;;;5075569;28;20020;-70
2021/09/01 01:31:28;;;;;;;30.85;13.07;;;;;;;;;;5092337;28;20345;-70
2021/09/01 01:33:53;;;;;;;34.75;13.40;;;;;;;;;;5073350;28;20097;-70
2021/09/01 01:36:19;;;;;;;31.20;12.25;;;;;;;;;;5073530;28;20016;-70
2021/09/01 01:38:44;;;;;;;37.53;12.93;;;;;;;;;;5073171;28;20043;-71
2021/09/01 01:41:10;;;;;;;30.95;12.38;;;;;;;;;;5073154;28;20059;-70
2021/09/01 01:43:36;;;;;;;36.22;13.25;;;;;;;;;;5072808;28;20160;-70
2021/09/01 01:46:02;;;;;;;30.33;11.48;;;;;;;;;;5086998;28;20470;-71
2021/09/01 01:48:28;;;;;;;30.02;11.80;;;;;;;;;;5093192;28;20020;-71
2021/09/01 01:50:53;;;;;;;37.72;12.18;;;;;;;;;;5093525;28;20540;-71
2021/09/01 01:53:18;;;;;;;38.33;11.75;;;;;;;;;;5092718;28;20528;-71
2021/09/01 01:55:44;;;;;;;28.47;11.10;;;;;;;;;;5073309;28;20069;-71
2021/09/01 01:58:09;;;;;;;33.28;12.02;;;;;;;;;;5072726;28;20780;-71
2021/09/01 02:00:34;;;;;;;40.72;13.13;;;;;;;;;;5072807;28;20016;-71
2021/09/01 02:03:00;;;;;;;36.90;13.07;;;;;;;;;;5054685;28;20028;-70
2021/09/01 02:05:25;;;;;;;29.50;11.10;;;;;;;;;;5072723;28;20023;-70
2021/09/01 02:07:50;;;;;;;30.45;11.40;;;;;;;;;;5077475;28;20034;-71
2021/09/01 02:10:16;;;;;;;37.53;12.18;;;;;;;;;;5092814;28;20020;-70
2021/09/01 02:12:41;;;;;;;27.63;11.32;;;;;;;;;;5092823;28;20095;-70
2021/09/01 02:15:07;;;;;;;26.27;10.10;;;;;;;;;;5093113;28;20020;-70
2021/09/01 02:17:33;;;;;;;37.08;11.65;;;;;;;;;;5092771;28;20074;-71
2021/09/01 02:19:58;;;;;;;33.90;12.38;;;;;;;;;;5092567;28;20028;-70
2021/09/01 02:22:23;;;;;;;26.80;10.90;;;;;;;;;;5075529;28;20025;-71
2021/09/01 02:24:49;;;;;;;28.03;11.87;;;;;;;;;;5092775;28;20020;-71
2021/09/01 02:27:14;;;;;;;35.53;11.77;;;;;;;;;;5092391;28;20250;-71
2021/09/01 02:29:40;;;;;;;26.90;11.18;;;;;;;;;;5092504;28;20282;-70
2021/09/01 02:32:05;;;;;;;33.70;11.48;;;;;;;;;;5092259;28;20370;-71
2021/09/01 02:34:31;;;;;;;26.45;10.57;;;;;;;;;;5089457;28;20028;-71
2021/09/01 02:36:56;;;;;;;33.42;12.90;;;;;;;;;;5071789;28;20016;-70
2021/09/01 02:39:22;;;;;;;30.50;11.88;;;;;;;;;;5071941;28;20024;-71
2021/09/01 02:41:47;;;;;;;29.15;12.10;;;;;;;;;;5071985;28;20035;-71
2021/09/01 02:44:12;;;;;;;27.50;12.45;;;;;;;;;;5071901;28;20363;-71
2021/09/01 02:46:37;;;;;;;33.33;11.37;;;;;;;;;;5071999;28;20020;-70
2021/09/01 02:49:02;;;;;;;32.72;12.02;;;;;;;;;;5072260;28;20304;-71
2021/09/01 02:51:28;;;;;;;32.25;12.73;;;;;;;;;;5071823;28;20029;-71
2021/09/01 02:53:53;;;;;;;33.40;13.93;;;;;;;;;;5071903;28;20023;-70
2021/09/01 02:56:18;;;;;;;34.20;12.93;;;;;;;;;;5071754;28;20494;-71
2021/09/01 02:58:43;;;;;;;40.03;12.67;;;;;;;;;;5071732;28;20051;-70
2021/09/01 03:01:08;;;;;;;34.33;13.77;;;;;;;;;;5071562;28;20345;-71
2021/09/01 03:03:34;;;;;;;33.30;12.33;;;;;;;;;;5090928;28;20322;-71
2021/09/01 03:05:59;;;;;;;35.23;12.83;;;;;;;;;;5091726;28;20728;-71
2021/09/01 03:08:24;;;;;;;38.73;13.13;;;;;;;;;;5091652;28;20283;-70
2021/09/01 03:10:49;;;;;;;27.17;11.90;;;;;;;;;;5091674;28;20732;-71
2021/09/01 03:13:14;;;;;;;35.67;12.27;;;;;;;;;;5091251;28;20262;-70
2021/09/01 03:15:39;;;;;;;39.45;12.98;;;;;;;;;;5079945;28;20355;-71
2021/09/01 03:18:05;;;;;;;32.83;13.40;;;;;;;;;;5071221;28;20016;-71
2021/09/01 03:20:30;;;;;;;38.53;12.52;;;;;;;;;;5070996;28;20878;-70
2021/09/01 03:22:55;;;;;;;36.67;13.70;;;;;;;;;;5070936;28;20451;-70
2021/09/01 03:25:21;;;;;;;34.67;13.70;;;;;;;;;;5071260;28;20017;-70
2021/09/01 03:27:46;;;;;;;41.75;13.05;;;;;;;;;;5071257;28;20100;-70
2021/09/01 03:30:11;;;;;;;26.27;11.98;;;;;;;;;;5086852;28;20420;-71
2021/09/01 03:32:37;;;;;;;47.55;13.30;;;;;;;;;;5082752;28;20023;-70
2021/09/01 03:35:02;;;;;;;27.45;13.55;;;;;;;;;;5091356;28;20050;-71
2021/09/01 03:37:27;;;;;;;43.50;14.52;;;;;;;;;;5091119;28;20015;-70
2021/09/01 03:39:52;;;;;;;41.70;13.63;;;;;;;;;;5091062;28;20020;-71
2021/09/01 03:42:18;;;;;;;42.10;13.50;;;;;;;;;;5085176;28;20290;-70
2021/09/01 03:44:43;;;;;;;34.57;13.40;;;;;;;;;;5073294;28;20254;-70
2021/09/01 03:47:08;;;;;;;33.13;13.20;;;;;;;;;;5070759;28;20300;-70
2021/09/01 03:49:33;;;;;;;37.85;13.52;;;;;;;;;;5070007;28;20289;-71
2021/09/01 03:51:58;;;;;;;40.70;15.40;;;;;;;;;;5079396;28;20393;-70
2021/09/01 03:54:24;;;;;;;34.87;13.43;;;;;;;;;;5077175;28;20132;-71
2021/09/01 03:56:49;;;;;;;33.65;12.77;;;;;;;;;;5070736;28;20644;-70
2021/09/01 03:59:14;;;;;;;33.97;13.77;;;;;;;;;;5070469;28;20363;-71
2021/09/01 04:01:39;;;;;;;35.67;14.27;;;;;;;;;;5052714;28;20267;-70
2021/09/01 04:04:05;;;;;;;42.80;13.52;;;;;;;;;;5070400;28;20328;-71
2021/09/01 04:06:31;;;;;;;39.40;11.95;;;;;;;;;;5086220;28;20095;-71
2021/09/01 04:08:56;;;;;;;37.40;14.10;;;;;;;;;;5090897;28;20031;-70
2021/09/01 04:11:21;;;;;;;37.75;12.85;;;;;;;;;;5090919;28;20027;-71
2021/09/01 04:13:46;;;;;;;35.30;12.55;;;;;;;;;;5090589;28;20092;-70
2021/09/01 04:16:12;;;;;;;39.33;12.70;;;;;;;;;;5089596;28;20030;-70
2021/09/01 04:18:37;;;;;;;35.80;12.53;;;;;;;;;;5090484;28;20605;-70
2021/09/01 04:21:02;;;;;;;30.65;12.23;;;;;;;;;;5076231;28;20278;-70
2021/09/01 04:23:28;;;;;;;27.90;12.00;;;;;;;;;;5069979;28;20017;-70
2021/09/01 04:25:53;;;;;;;30.08;11.13;;;;;;;;;;5070249;28;20070;-70
2021/09/01 04:28:19;;;;;;;33.97;12.27;;;;;;;;;;5070309;28;20544;-70
2021/09/01 04:30:44;;;;;;;30.73;11.67;;;;;;;;;;5070293;28;20258;-71
2021/09/01 04:33:09;;;;;;;31.80;11.93;;;;;;;;;;5069825;28;20255;-70
2021/09/01 04:35:34;;;;;;;26.90;10.68;;;;;;;;;;5089428;28;20616;-70
2021/09/01 04:37:59;;;;;;;35.72;10.52;;;;;;;;;;5090343;28;20027;-70
2021/09/01 04:40:24;;;;;;;33.17;11.70;;;;;;;;;;5072196;28;20233;-70
2021/09/01 04:42:50;;;;;;;29.27;10.30;;;;;;;;;;5090182;28;20258;-71
2021/09/01 04:45:15;;;;;;;24.95;11.70;;;;;;;;;;5090240;28;20259;-70
2021/09/01 04:47:40;;;;;;;29.83;9.87;;;;;;;;;;5090387;28;20020;-71
2021/09/01 04:50:05;;;;;;;24.70;9.27;;;;;;;;;;5072823;28;20328;-70
2021/09/01 04:52:31;;;;;;;25.60;9.10;;;;;;;;;;5081775;28;20741;-70
2021/09/01 04:54:57;;;;;;;30.30;10.83;;;;;;;;;;5090302;28;20027;-70
2021/09/01 04:57:22;;;;;;;22.65;9.43;;;;;;;;;;5090174;28;20616;-71
2021/09/01 04:59:47;;;;;;;32.27;9.87;;;;;;;;;;5090553;28;20042;-70
2021/09/01 05:02:12;;;;;;;21.88;9.23;;;;;;;;;;5072890;28;20365;-71
2021/09/01 05:04:37;;;;;;;27.33;9.63;;;;;;;;;;5073854;28;20028;-70
2021/09/01 05:07:03;;;;;;;22.33;8.03;;;;;;;;;;5073745;28;20802;-70
2021/09/01 05:09:28;;;;;;;29.73;9.57;;;;;;;;;;5073591;28;20259;-71
2021/09/01 05:11:54;;;;;;;23.50;9.07;;;;;;;;;;5073454;28;20024;-71
2021/09/01 05:14:19;;;;;;;21.05;9.10;;;;;;;;;;5073478;28;20665;-71
2021/09/01 05:16:44;;;;;;;22.73;9.03;;;;;;;;;;5074009;28;20055;-70
2021/09/01 05:19:11;;;;;;;24.90;9.75;;;;;;;;;;5093328;28;20289;-71
2021/09/01 05:21:39;;;;;;;19.77;9.05;;;;;;;;;;5093557;28;20020;-70
2021/09/01 05:24:04;;;;;;;25.48;9.05;;;;;;;;;;5093642;28;20466;-70
2021/09/01 05:26:31;;;;;;;23.42;8.40;;;;;;;;;;5093790;28;20032;-71
2021/09/01 05:28:58;;;;;;;24.55;7.65;;;;;;;;;;5075817;28;20027;-70
2021/09/01 05:31:25;;;;;;;31.20;10.05;;;;;;;;;;5086208;28;20028;-71
2021/09/01 05:33:50;;;;;;;28.55;8.75;;;;;;;;;;5073093;28;20103;-70
2021/09/01 05:36:17;;;;;;;24.17;8.57;;;;;;;;;;5073043;28;20604;-71
2021/09/01 05:38:44;;;;;;;24.10;8.68;;;;;;;;;;5073030;28;20021;-71
2021/09/01 05:41:09;;;;;;;27.33;8.93;;;;;;;;;;5073084;28;20489;-70
2021/09/01 05:43:34;;;;;;;21.15;7.75;;;;;;;;;;5072827;28;20096;-71
2021/09/01 05:46:00;;;;;;;26.15;8.95;;;;;;;;;;5078361;28;20016;-70
2021/09/01 05:48:26;;;;;;;24.75;8.15;;;;;;;;;;5092912;28;20493;-71
2021/09/01 05:50:52;;;;;;;23.42;8.38;;;;;;;;;;5092976;28;20023;-70
2021/09/01 05:53:18;;;;;;;26.85;8.65;;;;;;;;;;5092668;28;20415;-70
2021/09/01 05:55:43;;;;;;;29.98;9.23;;;;;;;;;;5092884;28;20052;-70
2021/09/01 05:58:13;;;;;;;32.65;8.35;;;;;;;;;;5092971;28;20020;-71
2021/09/01 06:00:39;;;;;;;32.42;9.35;;;;;;;;;;5080604;28;20028;-70
2021/09/01 06:03:18;;;;;;;22.17;9.07;;;;;;;;;;5082629;28;20023;-70
2021/09/01 06:05:44;;;;;;;22.70;9.82;;;;;;;;;;5080423;28;20036;-70
2021/09/01 06:08:09;;;;;;;25.13;10.40;;;;;;;;;;5083457;28;20020;-70
2021/09/01 06:10:35;;;;;;;27.88;9.15;;;;;;;;;;5087283;28;20024;-70
2021/09/01 06:13:07;;;;;;;29.83;9.65;;;;;;;;;;5083373;28;20020;-71
2021/09/01 06:15:33;;;;;;;23.17;9.95;;;;;;;;;;5083706;28;20048;-71
2021/09/01 06:18:00;;;;;;;29.73;9.73;;;;;;;;;;5080659;28;20075;-71
2021/09/01 06:20:25;;;;;;;25.63;10.13;;;;;;;;;;5063639;28;20735;-71
2021/09/01 06:22:50;;;;;;;24.55;8.38;;;;;;;;;;5084673;28;20034;-70
2021/09/01 06:25:15;;;;;;;28.73;10.05;;;;;;;;;;5081230;28;20024;-71
2021/09/01 06:27:41;;;;;;;25.00;10.00;;;;;;;;;;5082338;28;20016;-70
2021/09/01 06:30:06;;;;;;;27.13;10.13;;;;;;;;;;5082094;28;20039;-70
2021/09/01 06:32:32;;;;;;;24.45;9.63;;;;;;;;;;5088179;28;20027;-71
2021/09/01 06:34:57;;;;;;;25.98;10.27;;;;;;;;;;5081591;28;20035;-71
2021/09/01 06:37:22;;;;;;;27.40;9.90;;;;;;;;;;5084501;28;20573;-71
2021/09/01 06:39:51;;;;;;;22.45;9.55;;;;;;;;;;5080480;28;20334;-71
2021/09/01 06:42:16;;;;;;;30.13;9.65;;;;;;;;;;5057077;28;20043;-70
2021/09/01 06:44:41;;;;;;;22.77;10.60;;;;;;;;;;5080651;28;20023;-70
2021/09/01 06:47:07;;;;;;;23.60;9.88;;;;;;;;;;5081909;28;20369;-71
2021/09/01 06:49:32;;;;;;;35.50;10.68;;;;;;;;;;5083620;28;20023;-70
2021/09/01 06:51:57;;;;;;;32.17;11.47;;;;;;;;;;5081774;28;20027;-70
2021/09/01 06:54:22;;;;;;;21.83;10.60;;;;;;;;;;5078088;28;20327;-72
2021/09/01 06:56:47;;;;;;;25.27;10.57;;;;;;;;;;5081502;28;20278;-70
2021/09/01 06:59:12;;;;;;;37.53;11.77;;;;;;;;;;5081565;28;20314;-70
2021/09/01 07:01:38;;;;;;;27.80;12.47;;;;;;;;;;5081528;28;20327;-70
2021/09/01 07:04:03;;;;;;;28.37;10.63;;;;;;;;;;5078963;28;20783;-70
2021/09/01 07:06:28;;;;;;;26.50;10.57;;;;;;;;;;5080949;28;20375;-70
2021/09/01 07:08:53;;;;;;;28.37;10.20;;;;;;;;;;5081810;28;20028;-71
2021/09/01 07:11:19;;;;;;;30.48;12.60;;;;;;;;;;5081233;28;20285;-70
2021/09/01 07:13:44;;;;;;;20.10;10.43;;;;;;;;;;5080565;28;20166;-70
2021/09/01 07:16:11;;;;;;;30.25;11.27;;;;;;;;;;5080689;28;20374;-71
2021/09/01 07:18:37;;;;;;;24.52;11.52;;;;;;;;;;5082111;28;20467;-70
2021/09/01 07:21:02;;;;;;;40.00;13.73;;;;;;;;;;5081149;28;20153;-71
2021/09/01 07:23:27;;;;;;;27.02;11.90;;;;;;;;;;5079853;28;20190;-70
2021/09/01 07:25:52;;;;;;;37.10;11.93;;;;;;;;;;5080684;28;20024;-70
2021/09/01 07:28:17;;;;;;;28.23;12.77;;;;;;;;;;5080989;28;20266;-71
2021/09/01 07:30:43;;;;;;;43.70;14.70;;;;;;;;;;5080523;28;20862;-70
2021/09/01 07:33:08;;;;;;;32.13;14.00;;;;;;;;;;5080318;28;20279;-71
2021/09/01 07:35:33;;;;;;;39.23;14.47;;;;;;;;;;5071069;28;20349;-70
2021/09/01 07:37:58;;;;;;;36.72;12.60;;;;;;;;;;5070535;28;20598;-70
2021/09/01 07:40:24;;;;;;;31.73;14.23;;;;;;;;;;5070917;28;20027;-71
2021/09/01 07:42:49;;;;;;;31.88;13.63;;;;;;;;;;5086151;28;20266;-70
2021/09/01 07:45:15;;;;;;;37.05;13.32;;;;;;;;;;5090565;28;20032;-70
2021/09/01 07:47:48;;;;;;;32.85;13.48;;;;;;;;;;5078477;28;20261;-70
2021/09/01 07:50:13;;;;;;;29.67;13.02;;;;;;;;;;5070484;28;20059;-70
2021/09/01 07:52:38;;;;;;;37.63;14.53;;;;;;;;;;5084109;28;20414;-71
2021/09/01 07:55:04;;;;;;;35.22;14.32;;;;;;;;;;5084409;28;20262;-70
2021/09/01 07:57:29;;;;;;;38.40;14.32;;;;;;;;;;5090858;28;20469;-71
2021/09/01 07:59:54;;;;;;;33.87;15.37;;;;;;;;;;5090444;28;20027;-70
2021/09/01 08:02:19;;;;;;;35.23;14.50;;;;;;;;;;5090504;28;20277;-70
2021/09/01 08:04:44;;;;;;;40.50;14.23;;;;;;;;;;5090893;28;20243;-70
2021/09/01 08:07:09;;;;;;;31.50;13.50;;;;;;;;;;5072907;28;20029;-71
2021/09/01 08:09:35;;;;;;;28.95;12.95;;;;;;;;;;5078366;28;20274;-71
2021/09/01 08:12:00;;;;;;;33.77;15.00;;;;;;;;;;5081672;28;20039;-70
2021/09/01 08:14:25;;;;;;;49.60;16.00;;;;;;;;;;5088958;28;20266;-71
2021/09/01 08:16:50;;;;;;;33.80;15.20;;;;;;;;;;5090626;28;20020;-71
2021/09/01 08:19:15;;;;;;;34.30;14.80;;;;;;;;;;5090571;28;20743;-71
2021/09/01 08:21:40;;;;;;;33.27;15.63;;;;;;;;;;5090473;28;20273;-70
2021/09/01 08:24:06;;;;;;;33.85;14.73;;;;;;;;;;5090218;28;20267;-71
2021/09/01 08:26:31;;;;;;;31.83;14.47;;;;;;;;;;5090385;28;20363;-70
2021/09/01 08:28:56;;;;;;;33.63;14.00;;;;;;;;;;5090322;28;20288;-70
2021/09/01 08:31:21;;;;;;;35.03;14.73;;;;;;;;;;5090452;28;20254;-70
2021/09/01 08:33:46;;;;;;;30.20;14.00;;;;;;;;;;5090449;28;20797;-70
2021/09/01 08:36:12;;;;;;;36.17;14.77;;;;;;;;;;5093473;28;20273;-71
2021/09/01 08:38:37;;;;;;;30.65;13.00;;;;;;;;;;5094910;28;20384;-70
2021/09/01 08:41:02;;;;;;;30.23;13.00;;;;;;;;;;5094470;28;20367;-70
2021/09/01 08:43:27;;;;;;;30.45;13.88;;;;;;;;;;5094677;28;20315;-70
2021/09/01 08:45:53;;;;;;;29.60;13.52;;;;;;;;;;5094704;28;20015;-71
2021/09/01 08:48:18;;;;;;;25.80;13.15;;;;;;;;;;5094591;28;20054;-70
2021/09/01 08:50:44;;;;;;;40.42;12.63;;;;;;;;;;5094520;28;20020;-70
2021/09/01 08:53:09;;;;;;;27.25;11.73;;;;;;;;;;5093998;28;20016;-70
2021/09/01 08:55:34;;;;;;;32.55;13.38;;;;;;;;;;5094509;28;20146;-71
2021/09/01 08:58:00;;;;;;;34.63;12.80;;;;;;;;;;5094008;28;20051;-70
2021/09/01 09:00:25;;;;;;;36.95;14.20;;;;;;;;;;5094039;28;20024;-70
2021/09/01 09:02:51;;;;;;;25.45;12.57;;;;;;;;;;5093811;28;20012;-70
2021/09/01 09:05:24;;;;;;;31.85;14.50;;;;;;;;;;5094114;28;20425;-71
2021/09/01 09:07:53;;;;;;;30.67;13.73;;;;;;;;;;5094189;28;20020;-70
2021/09/01 09:10:30;;;;;;;40.77;14.93;;;;;;;;;;5094127;28;20022;-70
2021/09/01 09:12:59;;;;;;;30.38;13.70;;;;;;;;;;5093758;28;20072;-71
2021/09/01 09:15:24;;;;;;;44.45;15.77;;;;;;;;;;5094052;28;20012;-70
2021/09/01 09:17:50;;;;;;;39.47;15.93;;;;;;;;;;5093851;28;20098;-70
2021/09/01 09:20:15;;;;;;;39.70;16.53;;;;;;;;;;5093843;28;20023;-71
2021/09/01 09:22:41;;;;;;;32.55;16.13;;;;;;;;;;5093990;28;20246;-71
2021/09/01 09:25:12;;;;;;;42.22;15.15;;;;;;;;;;5094111;28;20028;-71
2021/09/01 09:27:40;;;;;;;39.95;17.10;;;;;;;;;;5094158;28;20318;-71
2021/09/01 09:30:26;;;;;;;34.40;15.95;;;;;;;;;;5093518;28;20034;-70
2021/09/01 09:33:10;;;;;;;39.72;19.17;;;;;;;;;;5092936;28;20032;-70
2021/09/01 09:35:54;;;;;;;47.05;20.63;;;;;;;;;;5093873;28;20412;-70
2021/09/01 09:38:28;;;;;;;46.00;20.67;;;;;;;;;;5093516;28;20012;-70
2021/09/01 09:40:53;;;;;;;34.10;18.38;;;;;;;;;;5093284;28;20058;-71
2021/09/01 09:43:20;;;;;;;42.53;19.87;;;;;;;;;;5093156;28;20474;-70
2021/09/01 09:45:46;;;;;;;43.08;21.42;;;;;;;;;;5092979;28;20280;-70
2021/09/01 09:48:11;;;;;;;42.30;21.85;;;;;;;;;;5092227;28;20091;-70
2021/09/01 09:50:37;;;;;;;41.53;21.55;;;;;;;;;;5093134;28;20043;-70
2021/09/01 09:53:02;;;;;;;39.67;21.42;;;;;;;;;;5093125;28;20505;-71
2021/09/01 09:55:27;;;;;;;36.83;20.10;;;;;;;;;;5093590;28;20030;-70
2021/09/01 09:57:54;;;;;;;40.30;20.13;;;;;;;;;;5093111;28;20028;-71
2021/09/01 10:00:21;;;;;;;41.53;22.05;;;;;;;;;;5093014;28;20024;-70
2021/09/01 10:02:46;;;;;;;41.13;21.80;;;;;;;;;;5093048;28;20428;-71
2021/09/01 10:05:12;;;;;;;40.13;22.08;;;;;;;;;;5093282;28;20020;-71
2021/09/01 10:07:38;;;;;;;40.17;21.40;;;;;;;;;;5092837;28;20028;-70
2021/09/01 10:10:03;;;;;;;35.75;20.13;;;;;;;;;;5093035;28;20027;-70
2021/09/01 10:12:28;;;;;;;36.15;19.65;;;;;;;;;;5092875;28;20027;-70
2021/09/01 10:14:54;;;;;;;35.78;18.67;;;;;;;;;;5092906;28;20023;-71
2021/09/01 10:17:20;;;;;;;34.25;19.75;;;;;;;;;;5092834;28;20027;-70
2021/09/01 10:19:45;;;;;;;39.45;19.75;;;;;;;;;;5092355;28;20065;-70
2021/09/01 10:22:11;;;;;;;37.47;19.02;;;;;;;;;;5092508;28;20073;-71
2021/09/01 10:24:37;;;;;;;38.78;20.63;;;;;;;;;;5092501;28;20066;-70
2021/09/01 10:27:05;;;;;;;38.97;20.90;;;;;;;;;;5092670;28;20488;-71
2021/09/01 10:29:44;;;;;;;38.97;20.45;;;;;;;;;;5092423;28;20016;-71
2021/09/01 10:32:28;;;;;;;39.42;19.83;;;;;;;;;;5092365;28;20024;-71
2021/09/01 10:37:38;;;;;;;37.15;20.38;;;;;;;;;;5092437;28;20028;-71
2021/09/01 10:40:04;;;;;;;36.13;20.52;;;;;;;;;;5092586;28;20020;-70
2021/09/01 10:42:40;;;;;;;37.90;21.98;;;;;;;;;;5092657;28;20013;-70
2021/09/01 10:45:07;;;;;;;39.67;21.75;;;;;;;;;;5092696;28;20486;-70
2021/09/01 10:47:51;;;;;;;37.00;23.10;;;;;;;;;;5092469;28;20024;-72
2021/09/01 10:50:16;;;;;;;36.90;20.42;;;;;;;;;;5092123;28;20020;-70
2021/09/01 10:52:54;;;;;;;40.35;22.17;;;;;;;;;;5091809;28;20591;-70
2021/09/01 10:55:19;;;;;;;36.88;20.17;;;;;;;;;;5092071;28;20498;-71
2021/09/01 10:58:05;;;;;;;38.23;21.93;;;;;;;;;;5091695;28;20031;-71
2021/09/01 11:00:37;;;;;;;38.85;22.15;;;;;;;;;;5091395;28;20720;-72
2021/09/01 11:03:02;;;;;;;39.63;22.30;;;;;;;;;;5091735;28;20020;-71
2021/09/01 11:05:27;;;;;;;36.10;21.70;;;;;;;;;;5091726;28;20426;-71
2021/09/01 11:07:54;;;;;;;38.50;20.85;;;;;;;;;;5091660;28;20489;-71
2021/09/01 11:10:19;;;;;;;40.22;23.00;;;;;;;;;;5091579;28;20016;-71
2021/09/01 11:12:55;;;;;;;40.78;22.40;;;;;;;;;;5091239;28;20382;-71
2021/09/01 11:15:20;;;;;;;40.70;21.48;;;;;;;;;;5091799;28;20012;-71
2021/09/01 11:17:45;;;;;;;39.53;21.70;;;;;;;;;;5091934;28;20030;-71
2021/09/01 11:20:10;;;;;;;37.77;21.53;;;;;;;;;;5091568;28;20074;-71
2021/09/01 11:22:37;;;;;;;41.00;22.85;;;;;;;;;;5091204;28;20250;-71
2021/09/01 11:25:13;;;;;;;40.22;23.75;;;;;;;;;;5091364;28;20396;-71
2021/09/01 11:27:45;;;;;;;36.35;20.30;;;;;;;;;;5091297;28;20017;-71
2021/09/01 11:30:11;;;;;;;33.30;19.02;;;;;;;;;;5091427;28;20050;-71
2021/09/01 11:32:37;;;;;;;40.63;21.42;;;;;;;;;;5091087;28;20016;-71
2021/09/01 11:35:04;;;;;;;39.17;21.60;;;;;;;;;;5091371;28;20490;-71
2021/09/01 11:37:29;;;;;;;42.78;21.23;;;;;;;;;;5091150;28;20054;-72
2021/09/01 11:39:54;;;;;;;38.22;20.50;;;;;;;;;;5091067;28;20122;-71
2021/09/01 11:42:19;;;;;;;37.93;21.70;;;;;;;;;;5091049;28;20061;-71
2021/09/01 11:44:58;;;;;;;42.73;22.57;;;;;;;;;;5091199;28;20250;-71
2021/09/01 11:47:23;;;;;;;45.53;22.85;;;;;;;;;;5091468;28;20254;-71
2021/09/01 11:49:49;;;;;;;34.53;19.88;;;;;;;;;;5090686;28;20141;-71
2021/09/01 11:52:14;;;;;;;32.83;20.05;;;;;;;;;;5090909;28;20028;-72
2021/09/01 11:54:40;;;;;;;34.27;18.63;;;;;;;;;;5091031;28;20016;-71
2021/09/01 11:57:05;;;;;;;35.05;20.15;;;;;;;;;;5091193;28;20669;-71
2021/09/01 11:59:31;;;;;;;35.95;19.15;;;;;;;;;;5090853;28;20035;-71
2021/09/01 12:01:58;;;;;;;41.47;20.08;;;;;;;;;;5090586;28;20016;-71
2021/09/01 12:04:24;;;;;;;36.60;19.30;;;;;;;;;;5090765;28;20020;-71
2021/09/01 12:06:53;;;;;;;39.30;20.98;;;;;;;;;;5090713;28;20028;-71
2021/09/01 12:09:19;;;;;;;34.78;18.75;;;;;;;;;;5090386;28;20438;-71
2021/09/01 12:11:52;;;;;;;34.22;18.88;;;;;;;;;;5090186;28;20039;-72
2021/09/01 12:14:23;;;;;;;33.03;18.65;;;;;;;;;;5090714;28;20046;-71
2021/09/01 12:16:48;;;;;;;34.85;17.83;;;;;;;;;;5090581;28;20051;-71
2021/09/01 12:19:13;;;;;;;35.05;18.42;;;;;;;;;;5090637;28;20063;-71
2021/09/01 12:21:43;;;;;;;31.48;16.83;;;;;;;;;;5138950;22;20058;-71
2021/09/01 12:24:32;;;;;;;32.55;18.08;;;;;;;;;;5099891;28;20023;-71
2021/09/01 12:27:08;;;;;;;34.60;19.00;;;;;;;;;;5111085;28;20024;-71
2021/09/01 12:29:38;;;;;;;37.60;18.70;;;;;;;;;;5110877;28;20023;-71
2021/09/01 12:32:07;;;;;;;38.88;19.23;;;;;;;;;;5093308;28;20016;-71
2021/09/01 12:34:34;;;;;;;35.15;18.05;;;;;;;;;;5090961;28;20043;-71
2021/09/01 12:37:07;;;;;;;34.53;17.85;;;;;;;;;;5090744;28;20437;-71
2021/09/01 12:39:39;;;;;;;34.70;18.20;;;;;;;;;;5090238;28;20024;-71
2021/09/01 12:42:04;;;;;;;38.80;19.02;;;;;;;;;;5089730;28;20427;-71
2021/09/01 12:44:44;;;;;;;35.88;18.92;;;;;;;;;;5090227;28;20012;-71
2021/09/01 12:47:09;;;;;;;35.85;17.98;;;;;;;;;;5090403;28;20034;-71
2021/09/01 12:49:42;;;;;;;34.47;17.15;;;;;;;;;;5090336;28;20036;-71
2021/09/01 12:52:07;;;;;;;38.40;18.98;;;;;;;;;;5071859;28;20016;-71
2021/09/01 12:54:32;;;;;;;34.57;18.07;;;;;;;;;;5090238;28;20020;-71
2021/09/01 12:56:57;;;;;;;34.17;19.10;;;;;;;;;;5090158;28;20258;-71
2021/09/01 12:59:23;;;;;;;43.60;19.27;;;;;;;;;;5090173;28;20279;-71
2021/09/01 13:01:48;;;;;;;33.60;18.97;;;;;;;;;;5090101;28;20774;-71
2021/09/01 13:04:13;;;;;;;34.13;19.10;;;;;;;;;;5090258;28;20016;-72
2021/09/01 13:06:38;;;;;;;31.13;18.80;;;;;;;;;;5090159;28;20771;-71
2021/09/01 13:09:03;;;;;;;40.50;20.00;;;;;;;;;;5090254;28;20298;-71
2021/09/01 13:11:29;;;;;;;34.80;18.93;;;;;;;;;;5089954;28;20521;-71
2021/09/01 13:13:55;;;;;;;47.22;22.23;;;;;;;;;;5090259;28;20270;-71
2021/09/01 13:16:20;;;;;;;30.85;17.73;;;;;;;;;;5090144;28;20070;-71
2021/09/01 13:18:45;;;;;;;35.87;18.70;;;;;;;;;;5090093;28;20024;-71
2021/09/01 13:21:10;;;;;;;35.17;19.50;;;;;;;;;;5090826;28;20364;-71
2021/09/01 13:23:35;;;;;;;41.38;21.70;;;;;;;;;;5093423;28;20242;-71
2021/09/01 13:26:00;;;;;;;36.23;19.63;;;;;;;;;;5093717;28;20016;-71
2021/09/01 13:28:26;;;;;;;35.43;20.93;;;;;;;;;;5093602;28;20756;-71
2021/09/01 13:30:51;;;;;;;43.30;22.17;;;;;;;;;;5093434;28;20286;-71
2021/09/01 13:33:16;;;;;;;36.55;20.33;;;;;;;;;;5093399;28;20246;-71
2021/09/01 13:35:41;;;;;;;38.13;20.37;;;;;;;;;;5093635;28;20028;-71
2021/09/01 13:38:07;;;;;;;38.50;20.67;;;;;;;;;;5093345;28;20321;-71
2021/09/01 13:40:33;;;;;;;35.45;20.40;;;;;;;;;;5093171;28;20028;-71
2021/09/01 13:42:58;;;;;;;37.05;19.77;;;;;;;;;;5093152;28;20020;-71
2021/09/01 13:45:23;;;;;;;37.40;22.88;;;;;;;;;;5093406;28;20095;-71
2021/09/01 13:47:48;;;;;;;38.47;21.20;;;;;;;;;;5093356;28;20020;-72
2021/09/01 13:50:13;;;;;;;39.63;22.50;;;;;;;;;;5093353;28;20167;-71
2021/09/01 13:52:38;;;;;;;38.27;20.83;;;;;;;;;;5093466;28;20258;-71
2021/09/01 13:55:04;;;;;;;35.97;21.73;;;;;;;;;;5093325;28;20857;-71
2021/09/01 13:57:29;;;;;;;36.83;20.30;;;;;;;;;;5093071;28;20039;-71
2021/09/01 13:59:55;;;;;;;36.00;20.50;;;;;;;;;;5093224;28;20106;-71
2021/09/01 14:02:20;;;;;;;35.42;20.08;;;;;;;;;;5092503;28;20258;-71
2021/09/01 14:04:45;;;;;;;37.97;20.90;;;;;;;;;;5093145;28;20020;-71
2021/09/01 14:07:10;;;;;;;34.05;19.42;;;;;;;;;;5092945;28;20810;-71
2021/09/01 14:09:36;;;;;;;40.20;19.20;;;;;;;;;;5092923;28;20054;-71
2021/09/01 14:12:01;;;;;;;34.00;17.40;;;;;;;;;;5092678;28;20093;-71
2021/09/01 14:14:26;;;;;;;37.22;18.02;;;;;;;;;;5074659;28;20408;-71
2021/09/01 14:16:51;;;;;;;29.33;18.23;;;;;;;;;;5092953;28;20385;-71